sensor_id;sensor_type;location;lat;lon;timestamp;temperature;humidity
65826;DHT22;52586;-43.152;172.732;2023-03-12T00:00:11;24.30;51.00
65826;DHT22;52586;-43.152;172.732;2023-03-12T00:02:42;24.30;51.00
65826;DHT22;52586;-43.152;172.732;2023-03-12T00:05:13;24.40;51.00
65826;DHT22;52586;-43.152;172.732;2023-03-12T00:07:44;24.40;50.90
65826;DHT22;52586;-43.152;172.732;2023-03-12T00:10:14;24.40;50.90
65826;DHT22;52586;-43.152;172.732;2023-03-12T00:12:45;24.40;50.80
65826;DHT22;52586;-43.152;172.732;2023-03-12T00:15:18;24.50;50.80
65826;DHT22;52586;-43.152;172.732;2023-03-12T00:17:49;24.50;50.80
65826;DHT22;52586;-43.152;172.732;2023-03-12T00:20:22;24.50;50.70
65826;DHT22;52586;-43.152;172.732;2023-03-12T00:22:53;24.50;50.70
65826;DHT22;52586;-43.152;172.732;2023-03-12T00:25:24;24.50;50.70
65826;DHT22;52586;-43.152;172.732;2023-03-12T00:27:54;24.60;50.70
65826;DHT22;52586;-43.152;172.732;2023-03-12T00:30:27;24.60;50.60
65826;DHT22;52586;-43.152;172.732;2023-03-12T00:32:57;24.60;50.60
65826;DHT22;52586;-43.152;172.732;2023-03-12T00:35:28;24.70;50.60
65826;DHT22;52586;-43.152;172.732;2023-03-12T00:37:59;24.70;50.60
65826;DHT22;52586;-43.152;172.732;2023-03-12T00:40:30;24.70;50.60
65826;DHT22;52586;-43.152;172.732;2023-03-12T00:43:00;24.70;50.60
65826;DHT22;52586;-43.152;172.732;2023-03-12T00:45:33;24.70;50.60
65826;DHT22;52586;-43.152;172.732;2023-03-12T00:48:04;24.80;50.70
65826;DHT22;52586;-43.152;172.732;2023-03-12T00:50:34;24.80;50.60
65826;DHT22;52586;-43.152;172.732;2023-03-12T00:53:05;24.80;50.60
65826;DHT22;52586;-43.152;172.732;2023-03-12T00:55:36;24.80;50.70
65826;DHT22;52586;-43.152;172.732;2023-03-12T00:58:06;24.80;50.50
65826;DHT22;52586;-43.152;172.732;2023-03-12T01:00:39;24.90;50.50
65826;DHT22;52586;-43.152;172.732;2023-03-12T01:03:10;24.90;50.40
65826;DHT22;52586;-43.152;172.732;2023-03-12T01:05:40;24.90;50.40
65826;DHT22;52586;-43.152;172.732;2023-03-12T01:08:11;24.90;50.40
65826;DHT22;52586;-43.152;172.732;2023-03-12T01:10:42;25.00;50.40
65826;DHT22;52586;-43.152;172.732;2023-03-12T01:13:13;25.00;50.30
65826;DHT22;52586;-43.152;172.732;2023-03-12T01:15:46;25.00;50.40
65826;DHT22;52586;-43.152;172.732;2023-03-12T01:18:16;25.10;50.40
65826;DHT22;52586;-43.152;172.732;2023-03-12T01:20:47;25.10;50.50
65826;DHT22;52586;-43.152;172.732;2023-03-12T01:23:18;25.10;50.50
65826;DHT22;52586;-43.152;172.732;2023-03-12T01:25:49;25.10;50.50
65826;DHT22;52586;-43.152;172.732;2023-03-12T01:28:22;25.10;50.50
65826;DHT22;52586;-43.152;172.732;2023-03-12T01:30:54;25.10;50.50
65826;DHT22;52586;-43.152;172.732;2023-03-12T01:33:25;25.20;50.60
65826;DHT22;52586;-43.152;172.732;2023-03-12T01:35:56;25.20;50.50
65826;DHT22;52586;-43.152;172.732;2023-03-12T01:38:26;25.20;50.60
65826;DHT22;52586;-43.152;172.732;2023-03-12T01:40:57;25.20;50.50
65826;DHT22;52586;-43.152;172.732;2023-03-12T01:43:30;25.20;50.50
65826;DHT22;52586;-43.152;172.732;2023-03-12T01:46:10;25.30;50.50
65826;DHT22;52586;-43.152;172.732;2023-03-12T01:48:49;25.30;50.50
65826;DHT22;52586;-43.152;172.732;2023-03-12T01:51:21;25.30;50.50
65826;DHT22;52586;-43.152;172.732;2023-03-12T01:53:54;25.40;50.50
65826;DHT22;52586;-43.152;172.732;2023-03-12T01:56:29;25.40;50.60
65826;DHT22;52586;-43.152;172.732;2023-03-12T01:59:06;25.40;50.60
65826;DHT22;52586;-43.152;172.732;2023-03-12T02:01:39;25.50;50.60
65826;DHT22;52586;-43.152;172.732;2023-03-12T02:04:11;25.50;50.60
65826;DHT22;52586;-43.152;172.732;2023-03-12T02:06:45;25.50;50.60
65826;DHT22;52586;-43.152;172.732;2023-03-12T02:09:18;25.60;50.60
65826;DHT22;52586;-43.152;172.732;2023-03-12T02:11:50;25.60;50.60
65826;DHT22;52586;-43.152;172.732;2023-03-12T02:14:21;25.60;50.60
65826;DHT22;52586;-43.152;172.732;2023-03-12T02:16:55;25.60;50.50
65826;DHT22;52586;-43.152;172.732;2023-03-12T02:19:32;25.60;50.40
65826;DHT22;52586;-43.152;172.732;2023-03-12T02:22:08;25.70;50.50
65826;DHT22;52586;-43.152;172.732;2023-03-12T02:24:42;25.70;50.50
65826;DHT22;52586;-43.152;172.732;2023-03-12T02:27:16;25.70;50.50
65826;DHT22;52586;-43.152;172.732;2023-03-12T02:29:48;25.80;50.40
65826;DHT22;52586;-43.152;172.732;2023-03-12T02:32:22;25.80;50.40
65826;DHT22;52586;-43.152;172.732;2023-03-12T02:34:56;25.90;50.40
65826;DHT22;52586;-43.152;172.732;2023-03-12T02:37:26;25.90;50.40
65826;DHT22;52586;-43.152;172.732;2023-03-12T02:40:02;25.90;50.40
65826;DHT22;52586;-43.152;172.732;2023-03-12T02:42:37;26.00;50.50
65826;DHT22;52586;-43.152;172.732;2023-03-12T02:45:09;26.00;50.50
65826;DHT22;52586;-43.152;172.732;2023-03-12T02:47:39;26.10;50.50
65826;DHT22;52586;-43.152;172.732;2023-03-12T02:50:10;26.10;50.50
65826;DHT22;52586;-43.152;172.732;2023-03-12T02:52:41;26.10;50.50
65826;DHT22;52586;-43.152;172.732;2023-03-12T02:55:12;26.20;50.60
65826;DHT22;52586;-43.152;172.732;2023-03-12T02:57:44;26.20;50.60
65826;DHT22;52586;-43.152;172.732;2023-03-12T03:00:17;26.20;50.60
65826;DHT22;52586;-43.152;172.732;2023-03-12T03:02:48;26.30;50.60
65826;DHT22;52586;-43.152;172.732;2023-03-12T03:05:19;26.30;50.50
65826;DHT22;52586;-43.152;172.732;2023-03-12T03:07:50;26.40;50.40
65826;DHT22;52586;-43.152;172.732;2023-03-12T03:10:21;26.40;50.40
65826;DHT22;52586;-43.152;172.732;2023-03-12T03:12:53;26.50;50.30
65826;DHT22;52586;-43.152;172.732;2023-03-12T03:15:24;26.50;50.20
65826;DHT22;52586;-43.152;172.732;2023-03-12T03:17:55;26.50;50.10
65826;DHT22;52586;-43.152;172.732;2023-03-12T03:20:26;26.50;50.00
65826;DHT22;52586;-43.152;172.732;2023-03-12T03:22:56;26.60;50.00
65826;DHT22;52586;-43.152;172.732;2023-03-12T03:25:27;26.60;49.90
65826;DHT22;52586;-43.152;172.732;2023-03-12T03:27:59;26.70;49.90
65826;DHT22;52586;-43.152;172.732;2023-03-12T03:30:30;26.70;49.80
65826;DHT22;52586;-43.152;172.732;2023-03-12T03:33:01;26.70;49.40
65826;DHT22;52586;-43.152;172.732;2023-03-12T03:35:33;26.80;49.20
65826;DHT22;52586;-43.152;172.732;2023-03-12T03:38:04;26.80;49.00
65826;DHT22;52586;-43.152;172.732;2023-03-12T03:40:35;26.80;48.70
65826;DHT22;52586;-43.152;172.732;2023-03-12T03:43:07;26.80;48.70
65826;DHT22;52586;-43.152;172.732;2023-03-12T03:45:38;26.80;48.70
65826;DHT22;52586;-43.152;172.732;2023-03-12T03:48:11;26.90;48.60
65826;DHT22;52586;-43.152;172.732;2023-03-12T03:50:42;27.00;48.50
65826;DHT22;52586;-43.152;172.732;2023-03-12T03:53:13;27.00;48.50
65826;DHT22;52586;-43.152;172.732;2023-03-12T03:55:43;27.00;48.50
65826;DHT22;52586;-43.152;172.732;2023-03-12T03:58:16;27.00;48.40
65826;DHT22;52586;-43.152;172.732;2023-03-12T04:00:47;27.00;48.40
65826;DHT22;52586;-43.152;172.732;2023-03-12T04:03:17;27.10;47.60
65826;DHT22;52586;-43.152;172.732;2023-03-12T04:05:54;27.10;47.00
65826;DHT22;52586;-43.152;172.732;2023-03-12T04:08:26;27.10;46.40
65826;DHT22;52586;-43.152;172.732;2023-03-12T04:10:57;27.10;46.40
65826;DHT22;52586;-43.152;172.732;2023-03-12T04:13:30;27.10;46.50
65826;DHT22;52586;-43.152;172.732;2023-03-12T04:16:00;27.10;46.60
65826;DHT22;52586;-43.152;172.732;2023-03-12T04:18:31;27.10;46.50
65826;DHT22;52586;-43.152;172.732;2023-03-12T04:21:03;27.10;46.60
65826;DHT22;52586;-43.152;172.732;2023-03-12T04:23:34;27.10;46.60
65826;DHT22;52586;-43.152;172.732;2023-03-12T04:26:05;27.20;46.80
65826;DHT22;52586;-43.152;172.732;2023-03-12T04:28:38;27.20;46.90
65826;DHT22;52586;-43.152;172.732;2023-03-12T04:31:09;27.30;46.90
65826;DHT22;52586;-43.152;172.732;2023-03-12T04:33:40;27.30;46.90
65826;DHT22;52586;-43.152;172.732;2023-03-12T04:36:11;27.30;46.90
65826;DHT22;52586;-43.152;172.732;2023-03-12T04:38:42;27.40;46.90
65826;DHT22;52586;-43.152;172.732;2023-03-12T04:41:14;27.40;46.80
65826;DHT22;52586;-43.152;172.732;2023-03-12T04:43:47;27.40;46.70
65826;DHT22;52586;-43.152;172.732;2023-03-12T04:46:17;27.40;46.70
65826;DHT22;52586;-43.152;172.732;2023-03-12T04:48:48;27.50;46.80
65826;DHT22;52586;-43.152;172.732;2023-03-12T04:51:19;27.50;46.70
65826;DHT22;52586;-43.152;172.732;2023-03-12T04:53:50;27.50;46.70
65826;DHT22;52586;-43.152;172.732;2023-03-12T04:56:21;27.50;46.70
65826;DHT22;52586;-43.152;172.732;2023-03-12T04:58:54;27.60;46.70
65826;DHT22;52586;-43.152;172.732;2023-03-12T05:01:26;27.60;46.60
65826;DHT22;52586;-43.152;172.732;2023-03-12T05:03:57;27.60;46.60
65826;DHT22;52586;-43.152;172.732;2023-03-12T05:06:28;27.60;46.70
65826;DHT22;52586;-43.152;172.732;2023-03-12T05:08:58;27.70;46.70
65826;DHT22;52586;-43.152;172.732;2023-03-12T05:11:29;27.70;46.80
65826;DHT22;52586;-43.152;172.732;2023-03-12T05:14:02;27.70;46.70
65826;DHT22;52586;-43.152;172.732;2023-03-12T05:16:33;27.70;46.50
65826;DHT22;52586;-43.152;172.732;2023-03-12T05:19:03;27.70;46.30
65826;DHT22;52586;-43.152;172.732;2023-03-12T05:21:34;27.70;46.20
65826;DHT22;52586;-43.152;172.732;2023-03-12T05:24:05;27.70;46.20
65826;DHT22;52586;-43.152;172.732;2023-03-12T05:26:36;27.80;46.30
65826;DHT22;52586;-43.152;172.732;2023-03-12T05:29:09;27.80;46.30
65826;DHT22;52586;-43.152;172.732;2023-03-12T05:31:39;27.80;46.20
65826;DHT22;52586;-43.152;172.732;2023-03-12T05:34:12;27.80;46.10
65826;DHT22;52586;-43.152;172.732;2023-03-12T05:36:42;27.80;46.10
65826;DHT22;52586;-43.152;172.732;2023-03-12T05:39:13;27.90;46.30
65826;DHT22;52586;-43.152;172.732;2023-03-12T05:41:44;27.80;46.20
65826;DHT22;52586;-43.152;172.732;2023-03-12T05:44:17;27.80;46.20
65826;DHT22;52586;-43.152;172.732;2023-03-12T05:46:47;27.90;46.80
65826;DHT22;52586;-43.152;172.732;2023-03-12T05:49:18;27.90;46.00
65826;DHT22;52586;-43.152;172.732;2023-03-12T05:51:49;27.90;45.90
65826;DHT22;52586;-43.152;172.732;2023-03-12T05:54:20;27.90;45.80
65826;DHT22;52586;-43.152;172.732;2023-03-12T05:56:53;27.90;45.80
65826;DHT22;52586;-43.152;172.732;2023-03-12T05:59:26;27.90;45.70
65826;DHT22;52586;-43.152;172.732;2023-03-12T06:01:57;27.90;45.60
65826;DHT22;52586;-43.152;172.732;2023-03-12T06:04:28;27.90;45.70
65826;DHT22;52586;-43.152;172.732;2023-03-12T06:06:58;28.00;45.90
65826;DHT22;52586;-43.152;172.732;2023-03-12T06:09:29;27.90;46.00
65826;DHT22;52586;-43.152;172.732;2023-03-12T06:12:00;27.90;46.10
65826;DHT22;52586;-43.152;172.732;2023-03-12T06:14:32;28.00;46.10
65826;DHT22;52586;-43.152;172.732;2023-03-12T06:17:03;27.90;46.00
65826;DHT22;52586;-43.152;172.732;2023-03-12T06:19:34;27.90;45.90
65826;DHT22;52586;-43.152;172.732;2023-03-12T06:22:04;27.90;45.70
65826;DHT22;52586;-43.152;172.732;2023-03-12T06:24:35;27.90;45.60
65826;DHT22;52586;-43.152;172.732;2023-03-12T06:27:07;27.80;45.70
65826;DHT22;52586;-43.152;172.732;2023-03-12T06:29:40;27.80;45.80
65826;DHT22;52586;-43.152;172.732;2023-03-12T06:32:10;27.80;45.80
65826;DHT22;52586;-43.152;172.732;2023-03-12T06:34:41;27.80;45.90
65826;DHT22;52586;-43.152;172.732;2023-03-12T06:37:12;27.80;45.90
65826;DHT22;52586;-43.152;172.732;2023-03-12T06:39:43;27.80;45.90
65826;DHT22;52586;-43.152;172.732;2023-03-12T06:42:13;27.80;45.90
65826;DHT22;52586;-43.152;172.732;2023-03-12T06:44:47;27.80;45.90
65826;DHT22;52586;-43.152;172.732;2023-03-12T06:47:17;27.80;45.80
65826;DHT22;52586;-43.152;172.732;2023-03-12T06:49:48;27.70;45.60
65826;DHT22;52586;-43.152;172.732;2023-03-12T06:52:19;27.70;45.40
65826;DHT22;52586;-43.152;172.732;2023-03-12T06:54:49;27.70;45.40
65826;DHT22;52586;-43.152;172.732;2023-03-12T06:57:20;27.70;45.30
65826;DHT22;52586;-43.152;172.732;2023-03-12T06:59:53;27.70;45.20
65826;DHT22;52586;-43.152;172.732;2023-03-12T07:02:24;27.60;45.10
65826;DHT22;52586;-43.152;172.732;2023-03-12T07:04:54;27.60;45.10
65826;DHT22;52586;-43.152;172.732;2023-03-12T07:07:25;27.60;45.10
65826;DHT22;52586;-43.152;172.732;2023-03-12T07:09:55;27.60;45.10
65826;DHT22;52586;-43.152;172.732;2023-03-12T07:12:26;27.60;45.20
65826;DHT22;52586;-43.152;172.732;2023-03-12T07:14:59;27.60;45.20
65826;DHT22;52586;-43.152;172.732;2023-03-12T07:17:29;27.50;45.10
65826;DHT22;52586;-43.152;172.732;2023-03-12T07:20:00;27.50;45.20
65826;DHT22;52586;-43.152;172.732;2023-03-12T07:22:31;27.50;45.30
65826;DHT22;52586;-43.152;172.732;2023-03-12T07:25:01;27.50;45.30
65826;DHT22;52586;-43.152;172.732;2023-03-12T07:27:32;27.40;45.20
65826;DHT22;52586;-43.152;172.732;2023-03-12T07:30:05;27.40;45.20
65826;DHT22;52586;-43.152;172.732;2023-03-12T07:32:36;27.40;45.30
65826;DHT22;52586;-43.152;172.732;2023-03-12T07:35:07;27.40;45.30
65826;DHT22;52586;-43.152;172.732;2023-03-12T07:37:38;27.30;45.20
65826;DHT22;52586;-43.152;172.732;2023-03-12T07:40:09;27.30;45.20
65826;DHT22;52586;-43.152;172.732;2023-03-12T07:42:40;27.30;45.30
65826;DHT22;52586;-43.152;172.732;2023-03-12T07:45:13;27.20;45.20
65826;DHT22;52586;-43.152;172.732;2023-03-12T07:47:44;27.20;45.20
65826;DHT22;52586;-43.152;172.732;2023-03-12T07:50:19;27.20;45.20
65826;DHT22;52586;-43.152;172.732;2023-03-12T07:52:49;27.20;45.30
65826;DHT22;52586;-43.152;172.732;2023-03-12T07:55:20;27.20;45.30
65826;DHT22;52586;-43.152;172.732;2023-03-12T07:57:51;27.10;45.30
65826;DHT22;52586;-43.152;172.732;2023-03-12T08:00:25;27.10;45.30
65826;DHT22;52586;-43.152;172.732;2023-03-12T08:02:55;27.10;45.40
65826;DHT22;52586;-43.152;172.732;2023-03-12T08:05:26;27.10;45.40
65826;DHT22;52586;-43.152;172.732;2023-03-12T08:07:57;27.00;45.30
65826;DHT22;52586;-43.152;172.732;2023-03-12T08:10:28;27.00;45.30
65826;DHT22;52586;-43.152;172.732;2023-03-12T08:12:58;27.00;45.30
65826;DHT22;52586;-43.152;172.732;2023-03-12T08:15:31;27.00;45.20
65826;DHT22;52586;-43.152;172.732;2023-03-12T08:18:02;27.00;45.20
65826;DHT22;52586;-43.152;172.732;2023-03-12T08:20:34;27.00;45.20
65826;DHT22;52586;-43.152;172.732;2023-03-12T08:23:04;27.00;45.20
65826;DHT22;52586;-43.152;172.732;2023-03-12T08:25:35;26.90;45.10
65826;DHT22;52586;-43.152;172.732;2023-03-12T08:28:06;26.80;45.10
65826;DHT22;52586;-43.152;172.732;2023-03-12T08:30:39;26.90;45.20
65826;DHT22;52586;-43.152;172.732;2023-03-12T08:33:09;26.80;45.10
65826;DHT22;52586;-43.152;172.732;2023-03-12T08:35:40;26.80;45.10
65826;DHT22;52586;-43.152;172.732;2023-03-12T08:38:11;26.70;45.10
65826;DHT22;52586;-43.152;172.732;2023-03-12T08:40:41;26.70;45.20
65826;DHT22;52586;-43.152;172.732;2023-03-12T08:43:12;26.70;45.20
65826;DHT22;52586;-43.152;172.732;2023-03-12T08:45:45;26.70;45.20
65826;DHT22;52586;-43.152;172.732;2023-03-12T08:48:16;26.70;45.20
65826;DHT22;52586;-43.152;172.732;2023-03-12T08:50:47;26.70;45.30
65826;DHT22;52586;-43.152;172.732;2023-03-12T08:53:18;26.70;45.30
65826;DHT22;52586;-43.152;172.732;2023-03-12T08:55:51;26.60;45.30
65826;DHT22;52586;-43.152;172.732;2023-03-12T08:58:22;26.60;45.30
65826;DHT22;52586;-43.152;172.732;2023-03-12T09:00:56;26.60;45.30
65826;DHT22;52586;-43.152;172.732;2023-03-12T09:03:26;26.50;45.30
65826;DHT22;52586;-43.152;172.732;2023-03-12T09:06:05;26.50;45.20
65826;DHT22;52586;-43.152;172.732;2023-03-12T09:08:40;26.50;45.30
65826;DHT22;52586;-43.152;172.732;2023-03-12T09:11:11;26.50;45.30
65826;DHT22;52586;-43.152;172.732;2023-03-12T09:13:42;26.50;45.30
65826;DHT22;52586;-43.152;172.732;2023-03-12T09:16:14;26.50;45.40
65826;DHT22;52586;-43.152;172.732;2023-03-12T09:18:45;26.40;45.40
65826;DHT22;52586;-43.152;172.732;2023-03-12T09:21:16;26.40;45.40
65826;DHT22;52586;-43.152;172.732;2023-03-12T09:23:47;26.40;45.40
65826;DHT22;52586;-43.152;172.732;2023-03-12T09:26:17;26.40;45.40
65826;DHT22;52586;-43.152;172.732;2023-03-12T09:28:48;26.40;45.40
65826;DHT22;52586;-43.152;172.732;2023-03-12T09:31:21;26.40;45.40
65826;DHT22;52586;-43.152;172.732;2023-03-12T09:33:52;26.30;45.40
65826;DHT22;52586;-43.152;172.732;2023-03-12T09:36:22;26.30;45.30
65826;DHT22;52586;-43.152;172.732;2023-03-12T09:38:54;26.30;45.30
65826;DHT22;52586;-43.152;172.732;2023-03-12T09:41:27;26.30;45.30
65826;DHT22;52586;-43.152;172.732;2023-03-12T09:44:01;26.30;45.30
65826;DHT22;52586;-43.152;172.732;2023-03-12T09:46:38;26.30;45.30
65826;DHT22;52586;-43.152;172.732;2023-03-12T09:49:16;26.20;45.30
65826;DHT22;52586;-43.152;172.732;2023-03-12T09:51:52;26.20;45.30
65826;DHT22;52586;-43.152;172.732;2023-03-12T09:54:28;26.20;45.30
65826;DHT22;52586;-43.152;172.732;2023-03-12T09:57:07;26.20;45.40
65826;DHT22;52586;-43.152;172.732;2023-03-12T09:59:39;26.20;45.40
65826;DHT22;52586;-43.152;172.732;2023-03-12T10:02:28;26.20;45.40
65826;DHT22;52586;-43.152;172.732;2023-03-12T10:05:05;26.20;45.50
65826;DHT22;52586;-43.152;172.732;2023-03-12T10:07:39;26.10;45.40
65826;DHT22;52586;-43.152;172.732;2023-03-12T10:10:29;26.10;45.40
65826;DHT22;52586;-43.152;172.732;2023-03-12T10:13:20;26.10;45.40
65826;DHT22;52586;-43.152;172.732;2023-03-12T10:16:05;26.10;45.50
65826;DHT22;52586;-43.152;172.732;2023-03-12T10:18:56;26.10;45.50
65826;DHT22;52586;-43.152;172.732;2023-03-12T10:21:38;26.10;45.50
65826;DHT22;52586;-43.152;172.732;2023-03-12T10:24:22;26.10;45.50
65826;DHT22;52586;-43.152;172.732;2023-03-12T10:26:58;26.00;45.40
65826;DHT22;52586;-43.152;172.732;2023-03-12T10:29:32;26.00;45.50
65826;DHT22;52586;-43.152;172.732;2023-03-12T10:32:07;26.00;45.50
65826;DHT22;52586;-43.152;172.732;2023-03-12T10:34:47;25.90;45.40
65826;DHT22;52586;-43.152;172.732;2023-03-12T10:37:21;25.90;45.50
65826;DHT22;52586;-43.152;172.732;2023-03-12T10:39:54;26.00;45.60
65826;DHT22;52586;-43.152;172.732;2023-03-12T10:42:28;25.90;45.60
65826;DHT22;52586;-43.152;172.732;2023-03-12T10:45:12;25.90;45.60
65826;DHT22;52586;-43.152;172.732;2023-03-12T10:47:50;25.90;45.60
65826;DHT22;52586;-43.152;172.732;2023-03-12T10:50:26;25.90;45.60
65826;DHT22;52586;-43.152;172.732;2023-03-12T10:53:20;25.90;45.60
65826;DHT22;52586;-43.152;172.732;2023-03-12T10:56:03;25.90;45.60
65826;DHT22;52586;-43.152;172.732;2023-03-12T10:58:36;25.90;45.60
65826;DHT22;52586;-43.152;172.732;2023-03-12T11:01:15;25.90;45.60
65826;DHT22;52586;-43.152;172.732;2023-03-12T11:03:48;25.80;45.60
65826;DHT22;52586;-43.152;172.732;2023-03-12T11:06:26;25.80;45.50
65826;DHT22;52586;-43.152;172.732;2023-03-12T11:09:05;25.80;45.50
65826;DHT22;52586;-43.152;172.732;2023-03-12T11:11:36;25.80;45.50
65826;DHT22;52586;-43.152;172.732;2023-03-12T11:14:13;25.80;45.50
65826;DHT22;52586;-43.152;172.732;2023-03-12T11:16:44;25.70;45.50
65826;DHT22;52586;-43.152;172.732;2023-03-12T11:19:25;25.70;45.50
65826;DHT22;52586;-43.152;172.732;2023-03-12T11:22:00;25.70;45.60
65826;DHT22;52586;-43.152;172.732;2023-03-12T11:24:31;25.70;45.60
65826;DHT22;52586;-43.152;172.732;2023-03-12T11:27:06;25.70;45.60
65826;DHT22;52586;-43.152;172.732;2023-03-12T11:29:43;25.70;46.20
65826;DHT22;52586;-43.152;172.732;2023-03-12T11:32:17;25.70;45.60
65826;DHT22;52586;-43.152;172.732;2023-03-12T11:34:49;25.70;45.70
65826;DHT22;52586;-43.152;172.732;2023-03-12T11:37:29;25.60;45.60
65826;DHT22;52586;-43.152;172.732;2023-03-12T11:40:13;25.60;45.60
65826;DHT22;52586;-43.152;172.732;2023-03-12T11:43:03;25.60;45.60
65826;DHT22;52586;-43.152;172.732;2023-03-12T11:45:46;25.60;45.60
65826;DHT22;52586;-43.152;172.732;2023-03-12T11:48:22;25.60;45.60
65826;DHT22;52586;-43.152;172.732;2023-03-12T11:51:05;25.60;45.70
65826;DHT22;52586;-43.152;172.732;2023-03-12T11:53:58;25.60;45.60
65826;DHT22;52586;-43.152;172.732;2023-03-12T11:56:35;25.60;45.60
65826;DHT22;52586;-43.152;172.732;2023-03-12T12:02:10;25.50;45.70
65826;DHT22;52586;-43.152;172.732;2023-03-12T12:08:19;25.50;45.70
65826;DHT22;52586;-43.152;172.732;2023-03-12T12:11:02;25.50;45.70
65826;DHT22;52586;-43.152;172.732;2023-03-12T12:13:44;25.50;45.70
65826;DHT22;52586;-43.152;172.732;2023-03-12T12:19:27;25.50;45.80
65826;DHT22;52586;-43.152;172.732;2023-03-12T12:22:26;25.50;45.80
65826;DHT22;52586;-43.152;172.732;2023-03-12T12:25:27;25.50;45.80
65826;DHT22;52586;-43.152;172.732;2023-03-12T12:28:12;25.40;45.70
65826;DHT22;52586;-43.152;172.732;2023-03-12T12:30:58;25.40;45.70
65826;DHT22;52586;-43.152;172.732;2023-03-12T12:33:44;25.40;45.70
65826;DHT22;52586;-43.152;172.732;2023-03-12T12:36:18;25.40;45.80
65826;DHT22;52586;-43.152;172.732;2023-03-12T12:38:53;25.40;45.80
65826;DHT22;52586;-43.152;172.732;2023-03-12T12:41:25;25.30;45.80
65826;DHT22;52586;-43.152;172.732;2023-03-12T12:44:01;25.30;45.80
65826;DHT22;52586;-43.152;172.732;2023-03-12T12:46:34;25.30;45.90
65826;DHT22;52586;-43.152;172.732;2023-03-12T12:49:10;25.30;45.90
65826;DHT22;52586;-43.152;172.732;2023-03-12T12:51:45;25.30;46.00
65826;DHT22;52586;-43.152;172.732;2023-03-12T12:54:22;25.30;46.00
65826;DHT22;52586;-43.152;172.732;2023-03-12T12:56:59;25.30;46.00
65826;DHT22;52586;-43.152;172.732;2023-03-12T12:59:39;25.30;46.00
65826;DHT22;52586;-43.152;172.732;2023-03-12T13:02:16;25.30;45.90
65826;DHT22;52586;-43.152;172.732;2023-03-12T13:04:49;25.30;45.90
65826;DHT22;52586;-43.152;172.732;2023-03-12T13:07:33;25.20;45.90
65826;DHT22;52586;-43.152;172.732;2023-03-12T13:10:37;25.30;46.00
65826;DHT22;52586;-43.152;172.732;2023-03-12T13:13:17;25.20;45.90
65826;DHT22;52586;-43.152;172.732;2023-03-12T13:16:17;25.20;45.90
65826;DHT22;52586;-43.152;172.732;2023-03-12T13:18:59;25.20;45.90
65826;DHT22;52586;-43.152;172.732;2023-03-12T13:21:35;25.20;46.00
65826;DHT22;52586;-43.152;172.732;2023-03-12T13:24:22;25.10;46.00
65826;DHT22;52586;-43.152;172.732;2023-03-12T13:27:01;25.10;46.00
65826;DHT22;52586;-43.152;172.732;2023-03-12T13:29:38;25.10;46.00
65826;DHT22;52586;-43.152;172.732;2023-03-12T13:33:03;25.10;46.00
65826;DHT22;52586;-43.152;172.732;2023-03-12T13:35:37;25.10;46.10
65826;DHT22;52586;-43.152;172.732;2023-03-12T13:38:10;25.10;46.00
65826;DHT22;52586;-43.152;172.732;2023-03-12T13:40:57;25.10;46.00
65826;DHT22;52586;-43.152;172.732;2023-03-12T13:43:49;25.00;46.00
65826;DHT22;52586;-43.152;172.732;2023-03-12T13:46:56;25.10;46.10
65826;DHT22;52586;-43.152;172.732;2023-03-12T13:49:35;25.00;46.10
65826;DHT22;52586;-43.152;172.732;2023-03-12T13:52:18;25.00;46.10
65826;DHT22;52586;-43.152;172.732;2023-03-12T13:54:56;25.00;46.10
65826;DHT22;52586;-43.152;172.732;2023-03-12T13:57:39;25.00;46.10
65826;DHT22;52586;-43.152;172.732;2023-03-12T14:00:16;24.90;46.10
65826;DHT22;52586;-43.152;172.732;2023-03-12T14:02:50;24.90;46.10
65826;DHT22;52586;-43.152;172.732;2023-03-12T14:05:25;24.90;46.20
65826;DHT22;52586;-43.152;172.732;2023-03-12T14:08:12;24.90;46.20
65826;DHT22;52586;-43.152;172.732;2023-03-12T14:10:56;24.90;46.20
65826;DHT22;52586;-43.152;172.732;2023-03-12T14:13:38;24.90;46.20
65826;DHT22;52586;-43.152;172.732;2023-03-12T14:16:19;24.90;46.20
65826;DHT22;52586;-43.152;172.732;2023-03-12T14:18:52;24.90;46.20
65826;DHT22;52586;-43.152;172.732;2023-03-12T14:21:29;24.90;46.20
65826;DHT22;52586;-43.152;172.732;2023-03-12T14:24:03;24.80;46.20
65826;DHT22;52586;-43.152;172.732;2023-03-12T14:26:39;24.80;46.20
65826;DHT22;52586;-43.152;172.732;2023-03-12T14:29:19;24.80;46.20
65826;DHT22;52586;-43.152;172.732;2023-03-12T14:31:51;24.80;46.20
65826;DHT22;52586;-43.152;172.732;2023-03-12T14:34:25;24.80;46.30
65826;DHT22;52586;-43.152;172.732;2023-03-12T14:37:01;24.80;46.30
65826;DHT22;52586;-43.152;172.732;2023-03-12T14:39:35;24.70;46.30
65826;DHT22;52586;-43.152;172.732;2023-03-12T14:42:09;24.70;46.30
65826;DHT22;52586;-43.152;172.732;2023-03-12T14:44:40;24.70;46.30
65826;DHT22;52586;-43.152;172.732;2023-03-12T14:47:22;24.70;46.30
65826;DHT22;52586;-43.152;172.732;2023-03-12T14:49:55;24.70;46.30
65826;DHT22;52586;-43.152;172.732;2023-03-12T14:52:29;24.70;46.30
65826;DHT22;52586;-43.152;172.732;2023-03-12T14:55:02;24.70;46.40
65826;DHT22;52586;-43.152;172.732;2023-03-12T14:57:34;24.70;46.40
65826;DHT22;52586;-43.152;172.732;2023-03-12T15:00:05;24.70;46.40
65826;DHT22;52586;-43.152;172.732;2023-03-12T15:02:43;24.70;46.40
65826;DHT22;52586;-43.152;172.732;2023-03-12T15:05:16;24.70;46.40
65826;DHT22;52586;-43.152;172.732;2023-03-12T15:07:50;24.60;46.40
65826;DHT22;52586;-43.152;172.732;2023-03-12T15:10:25;24.60;46.40
65826;DHT22;52586;-43.152;172.732;2023-03-12T15:12:57;24.60;46.40
65826;DHT22;52586;-43.152;172.732;2023-03-12T15:15:35;24.60;46.40
65826;DHT22;52586;-43.152;172.732;2023-03-12T15:18:14;24.50;46.40
65826;DHT22;52586;-43.152;172.732;2023-03-12T15:20:46;24.50;46.50
65826;DHT22;52586;-43.152;172.732;2023-03-12T15:23:20;24.50;46.50
65826;DHT22;52586;-43.152;172.732;2023-03-12T15:26:09;24.50;46.50
65826;DHT22;52586;-43.152;172.732;2023-03-12T15:28:40;24.50;46.50
65826;DHT22;52586;-43.152;172.732;2023-03-12T15:31:12;24.50;46.50
65826;DHT22;52586;-43.152;172.732;2023-03-12T15:33:44;24.50;46.50
65826;DHT22;52586;-43.152;172.732;2023-03-12T15:36:29;24.50;46.50
65826;DHT22;52586;-43.152;172.732;2023-03-12T15:39:11;24.50;46.50